createdAt,value
2022-08-05T00:02:08.002Z,19.56
2022-08-05T00:04:37.977Z,19.48
2022-08-05T00:07:26.789Z,19.51
2022-08-05T00:09:54.689Z,19.47
2022-08-05T00:12:21.277Z,19.58
2022-08-05T00:14:48.513Z,19.54
2022-08-05T00:17:18.652Z,19.60
2022-08-05T00:20:02.741Z,19.60
2022-08-05T00:22:29.695Z,19.47
2022-08-05T00:24:58.140Z,19.48
2022-08-05T00:27:28.532Z,19.49
2022-08-05T00:30:03.736Z,19.49
2022-08-05T00:32:30.454Z,19.48
2022-08-05T00:35:06.059Z,19.40
2022-08-05T00:37:51.267Z,19.23
2022-08-05T00:40:27.782Z,19.21
2022-08-05T00:43:00.510Z,19.28
2022-08-05T00:45:38.057Z,19.30
2022-08-05T00:48:31.306Z,19.36
2022-08-05T00:50:59.764Z,19.33
2022-08-05T00:53:35.302Z,19.38
2022-08-05T00:56:13.094Z,19.30
2022-08-05T00:58:44.968Z,19.34
2022-08-05T01:01:13.093Z,19.38
2022-08-05T01:03:39.930Z,19.39
2022-08-05T01:06:11.174Z,19.37
2022-08-05T01:08:44.307Z,19.33
2022-08-05T01:11:22.380Z,19.28
2022-08-05T01:14:08.832Z,19.27
2022-08-05T01:16:44.310Z,19.23
2022-08-05T01:19:36.611Z,19.42
2022-08-05T01:22:35.042Z,19.30
2022-08-05T01:25:40.119Z,19.25
2022-08-05T01:28:31.378Z,19.12
2022-08-05T01:31:26.319Z,19.15
2022-08-05T01:34:04.575Z,19.14
2022-08-05T01:36:42.284Z,19.20
2022-08-05T01:39:15.697Z,19.29
2022-08-05T01:42:05.274Z,19.46
2022-08-05T01:44:35.488Z,19.46
2022-08-05T01:47:05.187Z,19.41
2022-08-05T01:49:42.809Z,19.38
2022-08-05T01:52:23.389Z,19.47
2022-08-05T01:54:57.001Z,19.34
2022-08-05T01:58:29.164Z,19.29
2022-08-05T02:00:16.871Z,19.11
2022-08-05T02:02:54.325Z,19.00
2022-08-05T02:05:28.652Z,18.96
2022-08-05T02:08:01.337Z,18.88
2022-08-05T02:10:36.697Z,18.84
2022-08-05T02:13:16.369Z,18.90
2022-08-05T02:15:59.597Z,19.00
2022-08-05T02:18:34.828Z,18.84
2022-08-05T02:21:15.014Z,18.83
2022-08-05T02:23:44.730Z,18.93
2022-08-05T02:26:15.795Z,19.01
2022-08-05T02:28:46.354Z,19.04
2022-08-05T02:31:34.874Z,19.12
2022-08-05T02:34:09.171Z,19.20
2022-08-05T02:36:39.073Z,19.27
2022-08-05T02:39:09.113Z,19.32
2022-08-05T02:41:57.975Z,19.40
2022-08-05T02:44:26.606Z,19.39
2022-08-05T02:47:00.076Z,19.33
2022-08-05T02:49:35.956Z,19.19
2022-08-05T02:52:07.892Z,19.10
2022-08-05T02:54:37.709Z,19.07
2022-08-05T02:58:11.881Z,19.15
2022-08-05T02:59:59.443Z,19.23
2022-08-05T03:02:37.776Z,18.97
2022-08-05T03:05:07.480Z,18.87
2022-08-05T03:07:59.341Z,18.86
2022-08-05T03:10:24.874Z,18.76
2022-08-05T03:12:53.591Z,18.73
2022-08-05T03:15:23.655Z,18.70
2022-08-05T03:17:56.172Z,18.69
2022-08-05T03:20:25.102Z,18.61
2022-08-05T03:22:57.306Z,18.62
2022-08-05T03:26:04.993Z,18.69
2022-08-05T03:28:19.837Z,18.76
2022-08-05T03:30:48.192Z,18.78
2022-08-05T03:33:16.085Z,18.79
2022-08-05T03:35:45.593Z,18.79
2022-08-05T03:38:14.322Z,18.76
2022-08-05T03:40:47.273Z,18.80
2022-08-05T03:44:09.597Z,18.84
2022-08-05T03:46:03.889Z,18.81
2022-08-05T03:48:35.069Z,18.73
2022-08-05T03:52:37.315Z,18.64
2022-08-05T03:55:34.061Z,18.57
2022-08-05T03:56:58.895Z,18.61
2022-08-05T03:59:47.318Z,18.64
2022-08-05T04:02:39.194Z,18.56
2022-08-05T04:05:13.172Z,18.52
2022-08-05T04:07:57.053Z,18.53
2022-08-05T04:10:27.507Z,18.60
2022-08-05T04:12:55.433Z,18.77
2022-08-05T04:15:26.616Z,18.78
2022-08-05T04:17:59.945Z,18.68
2022-08-05T04:20:27.416Z,18.65
2022-08-05T04:22:55.641Z,18.77
2022-08-05T04:25:24.182Z,18.66
2022-08-05T04:28:11.317Z,18.62
2022-08-05T04:30:39.311Z,18.58
2022-08-05T04:33:06.256Z,18.52
2022-08-05T04:36:10.645Z,18.51
2022-08-05T04:38:20.911Z,18.46
2022-08-05T04:40:50.918Z,18.51
2022-08-05T04:43:17.825Z,18.42
2022-08-05T04:45:55.016Z,18.50
2022-08-05T04:48:27.320Z,18.61
2022-08-05T04:51:02.753Z,18.43
2022-08-05T04:53:36.416Z,18.41
2022-08-05T04:56:33.839Z,18.41
2022-08-05T04:58:54.154Z,18.21
2022-08-05T05:02:06.213Z,18.27
2022-08-05T05:04:07.106Z,18.29
2022-08-05T05:06:44.453Z,18.40
2022-08-05T05:09:14.176Z,18.39
2022-08-05T05:11:54.445Z,18.38
2022-08-05T05:14:31.718Z,18.44
2022-08-05T05:17:00.122Z,18.51
2022-08-05T05:19:37.157Z,18.43
2022-08-05T05:22:24.551Z,18.40
2022-08-05T05:24:58.006Z,18.29
2022-08-05T05:27:44.213Z,18.25
2022-08-05T05:30:30.616Z,18.35
2022-08-05T05:33:13.936Z,18.39
2022-08-05T05:35:43.408Z,18.38
2022-08-05T05:38:13.146Z,18.25
2022-08-05T05:40:47.940Z,18.31
2022-08-05T05:43:22.270Z,18.31
2022-08-05T05:46:10.643Z,18.43
2022-08-05T05:48:44.421Z,18.58
2022-08-05T05:51:15.210Z,18.63
2022-08-05T05:53:54.009Z,18.80
2022-08-05T05:56:31.801Z,18.78
2022-08-05T05:59:05.581Z,18.68
2022-08-05T06:01:37.406Z,18.45
2022-08-05T06:04:13.131Z,18.43
2022-08-05T06:06:42.906Z,18.32
2022-08-05T06:09:16.747Z,18.29
2022-08-05T06:11:48.845Z,18.47
2022-08-05T06:14:28.877Z,18.20
2022-08-05T06:16:56.774Z,18.18
2022-08-05T06:19:34.127Z,18.21
2022-08-05T06:22:06.699Z,18.12
2022-08-05T06:24:34.914Z,18.06
2022-08-05T06:27:03.867Z,18.14
2022-08-05T06:29:49.250Z,18.29
2022-08-05T06:32:26.129Z,18.24
2022-08-05T06:34:57.525Z,18.18
2022-08-05T06:37:57.020Z,17.96
2022-08-05T06:40:18.364Z,18.02
2022-08-05T06:42:52.769Z,18.04
2022-08-05T06:46:03.411Z,18.12
2022-08-05T06:48:37.246Z,18.05
2022-08-05T06:50:55.793Z,17.99
2022-08-05T06:53:27.665Z,17.93
2022-08-05T06:55:55.152Z,17.90
2022-08-05T06:58:35.437Z,17.83
2022-08-05T07:01:05.919Z,17.79
2022-08-05T07:03:33.798Z,17.78
2022-08-05T07:06:06.010Z,18.03
2022-08-05T07:08:47.988Z,17.86
2022-08-05T07:11:22.397Z,17.81
2022-08-05T07:14:15.336Z,17.76
2022-08-05T07:18:00.418Z,17.65
2022-08-05T07:22:28.389Z,17.54
2022-08-05T07:25:24.116Z,17.49
2022-08-05T07:28:01.489Z,17.45
2022-08-05T07:30:34.531Z,17.50
2022-08-05T07:33:09.407Z,17.50
2022-08-05T07:36:03.189Z,17.51
2022-08-05T07:38:32.836Z,17.57
2022-08-05T07:41:34.981Z,17.67
2022-08-05T07:43:58.117Z,17.74
2022-08-05T07:46:27.506Z,17.91
2022-08-05T07:49:01.909Z,17.98
2022-08-05T07:51:40.826Z,18.12
2022-08-05T07:54:15.956Z,18.27
2022-08-05T07:57:13.758Z,18.51
2022-08-05T07:59:40.396Z,18.58
2022-08-05T08:02:16.397Z,18.68
2022-08-05T08:04:48.287Z,18.81
2022-08-05T08:07:15.564Z,18.98
2022-08-05T08:09:42.712Z,18.70
2022-08-05T08:12:19.196Z,18.82
2022-08-05T08:14:56.582Z,18.86
2022-08-05T08:17:24.228Z,19.06
2022-08-05T08:20:21.241Z,19.14
2022-08-05T08:22:41.964Z,19.06
2022-08-05T08:25:16.402Z,19.12
2022-08-05T08:27:45.099Z,19.11
2022-08-05T08:30:29.744Z,19.23
2022-08-05T08:33:08.568Z,19.30
2022-08-05T08:35:41.092Z,19.33
2022-08-05T08:38:11.662Z,19.44
2022-08-05T08:40:50.511Z,19.41
2022-08-05T08:44:57.926Z,19.31
2022-08-05T08:46:06.226Z,19.31
2022-08-05T08:49:02.462Z,19.25
2022-08-05T08:52:04.179Z,19.10
2022-08-05T08:54:14.379Z,19.04
2022-08-05T08:56:47.916Z,19.03
2022-08-05T08:59:20.711Z,19.09
2022-08-05T09:01:57.314Z,19.18
2022-08-05T09:04:30.387Z,19.18
2022-08-05T09:07:01.608Z,19.05
2022-08-05T09:09:38.086Z,19.25
2022-08-05T09:12:30.231Z,19.20
2022-08-05T09:15:05.650Z,19.29
2022-08-05T09:17:40.526Z,19.27
2022-08-05T09:20:09.208Z,19.18
2022-08-05T09:23:19.971Z,19.06
2022-08-05T09:26:06.493Z,19.03
2022-08-05T09:28:37.814Z,19.06
2022-08-05T09:31:22.408Z,19.01
2022-08-05T09:34:03.518Z,19.04
2022-08-05T09:36:55.873Z,19.19
2022-08-05T09:39:45.840Z,19.21
2022-08-05T09:42:20.276Z,19.33
2022-08-05T09:44:56.379Z,19.50
2022-08-05T09:47:36.432Z,19.40
2022-08-05T09:50:18.193Z,19.41
2022-08-05T09:53:01.114Z,19.36
2022-08-05T09:55:58.453Z,19.34
2022-08-05T09:58:15.724Z,19.11
2022-08-05T10:01:01.588Z,19.00
2022-08-05T10:03:58.701Z,18.99
2022-08-05T10:06:28.081Z,18.86
2022-08-05T10:08:56.406Z,18.93
2022-08-05T10:11:24.073Z,18.82
2022-08-05T10:13:58.208Z,18.82
2022-08-05T10:16:33.899Z,18.57
2022-08-05T10:19:04.323Z,18.46
2022-08-05T10:21:40.165Z,18.30
2022-08-05T10:24:13.528Z,18.30
2022-08-05T10:26:49.136Z,18.28
2022-08-05T10:29:23.937Z,18.22
2022-08-05T10:32:53.047Z,18.07
2022-08-05T10:35:00.796Z,17.99
2022-08-05T10:37:40.461Z,18.07
2022-08-05T10:40:34.055Z,18.13
2022-08-05T10:43:43.437Z,17.99
2022-08-05T10:46:13.257Z,18.15
2022-08-05T10:48:57.450Z,18.22
2022-08-05T10:51:28.765Z,18.26
2022-08-05T10:54:00.924Z,18.31
2022-08-05T10:56:45.263Z,18.44
2022-08-05T11:00:02.938Z,18.47
2022-08-05T11:02:14.788Z,18.54
2022-08-05T11:05:04.016Z,18.47
2022-08-05T11:07:32.761Z,18.50
2022-08-05T11:10:29.216Z,18.67
2022-08-05T11:12:59.488Z,18.50
2022-08-05T11:15:43.962Z,18.63
2022-08-05T11:18:35.082Z,18.75
2022-08-05T11:21:11.851Z,18.63
2022-08-05T11:24:04.648Z,18.61
2022-08-05T11:26:38.264Z,18.62
2022-08-05T11:29:13.916Z,18.53
2022-08-05T11:31:57.500Z,18.38
2022-08-05T11:34:37.555Z,18.33
2022-08-05T11:37:06.075Z,18.29
2022-08-05T11:40:00.216Z,18.17
2022-08-05T11:42:31.657Z,18.29
2022-08-05T11:45:03.509Z,18.35
2022-08-05T11:47:49.690Z,18.32
2022-08-05T11:50:17.189Z,18.25
2022-08-05T11:52:46.067Z,18.22
2022-08-05T11:55:15.372Z,18.11
2022-08-05T11:58:08.205Z,18.14
2022-08-05T12:00:37.775Z,18.08
2022-08-05T12:03:28.818Z,18.15
2022-08-05T12:06:05.852Z,18.12
2022-08-05T12:08:33.624Z,18.29
2022-08-05T12:11:05.529Z,18.15
2022-08-05T12:13:48.628Z,18.12
2022-08-05T12:16:19.091Z,18.17
2022-08-05T12:18:52.803Z,18.20
2022-08-05T12:21:39.246Z,18.35
2022-08-05T12:24:11.661Z,18.51
2022-08-05T12:26:47.640Z,18.57
2022-08-05T12:29:22.971Z,18.57
2022-08-05T12:32:01.867Z,18.61
2022-08-05T12:34:31.889Z,18.66
2022-08-05T12:37:03.290Z,18.68
2022-08-05T12:39:34.488Z,18.53
2022-08-05T12:42:09.045Z,18.71
2022-08-05T12:44:35.849Z,18.82
2022-08-05T12:47:03.754Z,18.80
2022-08-05T12:50:04.339Z,18.67
2022-08-05T12:52:41.753Z,18.54
2022-08-05T12:55:22.314Z,18.58
2022-08-05T12:58:49.828Z,18.55
2022-08-05T13:02:02.843Z,18.80
2022-08-05T13:03:41.810Z,18.96
2022-08-05T13:06:16.031Z,18.87
2022-08-05T13:08:50.818Z,18.98
2022-08-05T13:12:01.696Z,19.02
2022-08-05T13:14:20.143Z,19.01
2022-08-05T13:16:54.266Z,19.06
2022-08-05T13:19:26.712Z,19.09
2022-08-05T13:22:01.271Z,19.07
2022-08-05T13:24:44.976Z,19.05
2022-08-05T13:27:39.081Z,19.10
2022-08-05T13:30:35.221Z,19.21
2022-08-05T13:33:00.948Z,19.61
2022-08-05T13:35:42.536Z,19.91
2022-08-05T13:38:28.657Z,20.08
2022-08-05T13:41:00.737Z,20.32
2022-08-05T13:43:45.266Z,20.45
2022-08-05T13:46:14.873Z,20.47
2022-08-05T13:48:57.717Z,20.28
2022-08-05T13:51:29.491Z,20.08
2022-08-05T13:54:03.249Z,20.16
2022-08-05T13:56:38.709Z,20.07
2022-08-05T13:59:19.764Z,20.16
2022-08-05T14:01:58.146Z,20.30
2022-08-05T14:04:54.264Z,20.46
2022-08-05T14:07:55.387Z,20.58
2022-08-05T14:10:18.735Z,20.91
2022-08-05T14:12:57.080Z,21.26
2022-08-05T14:16:07.546Z,21.24
2022-08-05T14:18:17.894Z,20.90
2022-08-05T14:20:48.921Z,20.99
2022-08-05T14:23:25.694Z,20.81
2022-08-05T14:25:58.398Z,20.86
2022-08-05T14:28:35.621Z,20.77
2022-08-05T14:31:02.794Z,20.65
2022-08-05T14:33:56.622Z,20.49
2022-08-05T14:36:21.252Z,20.43
2022-08-05T14:38:48.297Z,20.29
2022-08-05T14:41:14.993Z,20.17
2022-08-05T14:43:58.833Z,20.01
2022-08-05T14:46:36.276Z,20.02
2022-08-05T14:49:07.173Z,20.02
2022-08-05T14:51:42.893Z,19.98
2022-08-05T14:54:29.913Z,20.08
2022-08-05T14:57:01.028Z,20.12
2022-08-05T14:59:35.730Z,20.13
2022-08-05T15:02:15.668Z,20.12
2022-08-05T15:04:43.242Z,20.39
2022-08-05T15:07:09.885Z,20.55
2022-08-05T15:09:52.316Z,20.73
2022-08-05T15:12:23.121Z,20.79
2022-08-05T15:14:57.399Z,20.96
2022-08-05T15:17:46.685Z,21.56
2022-08-05T15:20:18.473Z,22.01
2022-08-05T15:22:54.129Z,22.17
2022-08-05T15:25:23.469Z,22.12
2022-08-05T15:28:08.049Z,22.16
2022-08-05T15:30:40.001Z,22.12
2022-08-05T15:33:06.609Z,22.18
2022-08-05T15:35:36.018Z,22.12
2022-08-05T15:38:33.087Z,22.11
2022-08-05T15:41:04.359Z,21.81
2022-08-05T15:43:45.397Z,21.51
2022-08-05T15:46:13.309Z,21.21
2022-08-05T15:48:40.788Z,21.08
2022-08-05T15:52:04.287Z,21.06
2022-08-05T15:54:14.951Z,20.97
2022-08-05T15:56:41.777Z,20.78
2022-08-05T15:59:08.251Z,20.75
2022-08-05T16:01:39.839Z,20.71
2022-08-05T16:04:08.660Z,20.68
2022-08-05T16:06:37.120Z,20.73
2022-08-05T16:09:04.140Z,20.68
2022-08-05T16:11:42.482Z,20.66
2022-08-05T16:14:10.436Z,20.60
2022-08-05T16:16:43.976Z,20.51
2022-08-05T16:19:25.606Z,20.61
2022-08-05T16:22:02.720Z,20.73
2022-08-05T16:24:40.172Z,20.88
2022-08-05T16:27:09.023Z,20.92
2022-08-05T16:29:38.585Z,20.88
2022-08-05T16:32:06.453Z,20.92
2022-08-05T16:34:36.088Z,20.88
2022-08-05T16:37:03.466Z,21.10
2022-08-05T16:40:04.982Z,21.63
2022-08-05T16:42:34.924Z,21.93
2022-08-05T16:46:02.993Z,21.82
2022-08-05T16:47:55.583Z,21.57
2022-08-05T16:50:26.494Z,21.39
2022-08-05T16:52:52.913Z,21.39
2022-08-05T16:55:23.205Z,21.22
2022-08-05T16:58:00.476Z,21.26
2022-08-05T17:00:34.512Z,21.39
2022-08-05T17:03:15.204Z,21.34
2022-08-05T17:05:50.266Z,21.18
2022-08-05T17:08:36.473Z,21.19
2022-08-05T17:11:16.542Z,21.22
2022-08-05T17:13:44.477Z,20.98
2022-08-05T17:16:32.811Z,20.69
2022-08-05T17:18:58.623Z,20.67
2022-08-05T17:21:36.243Z,20.47
2022-08-05T17:24:19.736Z,20.41
2022-08-05T17:26:58.297Z,20.44
2022-08-05T17:29:33.236Z,20.51
2022-08-05T17:32:00.900Z,20.33
2022-08-05T17:34:30.017Z,20.26
2022-08-05T17:36:59.985Z,20.12
2022-08-05T17:39:34.423Z,20.16
2022-08-05T17:42:18.520Z,20.15
2022-08-05T17:44:50.297Z,19.92
2022-08-05T17:47:22.971Z,19.78
2022-08-05T17:49:59.501Z,19.80
2022-08-05T17:52:30.980Z,19.80
2022-08-05T17:54:58.172Z,19.70
2022-08-05T17:57:25.764Z,19.72
2022-08-05T18:00:03.587Z,19.71
2022-08-05T18:02:35.222Z,19.69
2022-08-05T18:05:03.473Z,19.66
2022-08-05T18:07:41.435Z,19.53
2022-08-05T18:10:11.295Z,19.50
2022-08-05T18:12:39.096Z,19.34
2022-08-05T18:15:06.284Z,19.23
2022-08-05T18:18:00.240Z,18.91
2022-08-05T18:20:29.415Z,18.85
2022-08-05T18:23:00.554Z,18.80
2022-08-05T18:25:38.915Z,18.79
2022-08-05T18:28:06.665Z,18.55
2022-08-05T18:30:34.492Z,18.70
2022-08-05T18:33:01.859Z,18.61
2022-08-05T18:35:59.615Z,18.49
2022-08-05T18:38:19.444Z,18.52
2022-08-05T18:41:55.342Z,18.37
2022-08-05T18:43:43.205Z,18.37
2022-08-05T18:46:19.559Z,18.32
2022-08-05T18:48:51.919Z,18.31
2022-08-05T18:52:04.745Z,18.22
2022-08-05T18:54:26.052Z,18.17
2022-08-05T18:56:54.596Z,18.03
2022-08-05T18:59:43.995Z,17.98
2022-08-05T19:02:11.330Z,17.98
2022-08-05T19:05:02.167Z,17.87
2022-08-05T19:07:45.231Z,17.91
2022-08-05T19:10:12.286Z,17.81
2022-08-05T19:12:38.775Z,17.67
2022-08-05T19:15:05.801Z,17.63
2022-08-05T19:17:59.015Z,17.55
2022-08-05T19:20:34.804Z,17.61
2022-08-05T19:23:02.648Z,17.55
2022-08-05T19:25:39.235Z,17.58
2022-08-05T19:28:10.314Z,17.52
2022-08-05T19:30:36.809Z,17.41
2022-08-05T19:33:05.194Z,17.31
2022-08-05T19:35:56.516Z,17.29
2022-08-05T19:38:26.415Z,17.28
2022-08-05T19:40:53.450Z,17.17
2022-08-05T19:44:04.826Z,17.12
2022-08-05T19:46:06.320Z,17.03
2022-08-05T19:48:43.516Z,16.97
2022-08-05T19:52:05.040Z,16.92
2022-08-05T19:54:21.658Z,16.92
2022-08-05T19:56:54.143Z,16.90
2022-08-05T19:59:51.649Z,16.83
2022-08-05T20:02:07.669Z,16.81
2022-08-05T20:04:34.187Z,16.78
2022-08-05T20:07:01.016Z,16.74
2022-08-05T20:09:28.590Z,16.68
2022-08-05T20:12:15.094Z,16.52
2022-08-05T20:14:41.830Z,16.47
2022-08-05T20:17:09.895Z,16.35
2022-08-05T20:19:41.336Z,16.31
2022-08-05T20:22:09.664Z,16.24
2022-08-05T20:24:36.215Z,16.15
2022-08-05T20:27:04.457Z,16.10
2022-08-05T20:29:38.196Z,15.97
2022-08-05T20:32:06.502Z,15.93
2022-08-05T20:34:32.987Z,15.94
2022-08-05T20:37:01.171Z,15.89
2022-08-05T20:39:35.422Z,15.86
2022-08-05T20:42:02.402Z,15.81
2022-08-05T20:44:29.922Z,15.72
2022-08-05T20:46:59.796Z,15.65
2022-08-05T20:49:26.940Z,15.69
2022-08-05T20:51:55.049Z,15.71
2022-08-05T20:54:24.703Z,15.62
2022-08-05T20:56:52.353Z,15.57
2022-08-05T20:59:26.503Z,15.56
2022-08-05T21:01:57.243Z,15.59
2022-08-05T21:04:26.918Z,15.65
2022-08-05T21:06:54.939Z,15.57
2022-08-05T21:09:22.665Z,15.55
2022-08-05T21:12:07.293Z,15.56
2022-08-05T21:14:36.333Z,15.56
2022-08-05T21:17:05.458Z,15.59
2022-08-05T21:19:46.669Z,15.52
2022-08-05T21:22:14.317Z,15.51
2022-08-05T21:24:40.888Z,15.57
2022-08-05T21:27:09.104Z,15.53
2022-08-05T21:29:40.767Z,15.49
2022-08-05T21:32:07.531Z,15.42
2022-08-05T21:34:35.404Z,15.34
2022-08-05T21:37:02.570Z,15.36
2022-08-05T21:39:29.714Z,15.32
2022-08-05T21:42:01.284Z,15.30
2022-08-05T21:44:32.326Z,15.30
2022-08-05T21:46:59.625Z,15.22
2022-08-05T21:49:56.623Z,15.21
2022-08-05T21:52:23.054Z,15.18
2022-08-05T21:55:06.788Z,15.14
2022-08-05T21:57:34.281Z,15.09
2022-08-05T22:00:06.159Z,15.12
2022-08-05T22:02:42.868Z,15.00
2022-08-05T22:05:15.298Z,14.91
2022-08-05T22:07:59.133Z,14.93
2022-08-05T22:10:29.220Z,14.89
2022-08-05T22:12:59.077Z,14.86
2022-08-05T22:16:01.563Z,14.76
2022-08-05T22:18:24.856Z,14.78
2022-08-05T22:20:52.553Z,14.70
2022-08-05T22:24:02.336Z,14.67
2022-08-05T22:26:43.004Z,14.68
2022-08-05T22:29:17.425Z,14.66
2022-08-05T22:31:45.312Z,14.61
2022-08-05T22:34:12.842Z,14.57
2022-08-05T22:36:46.965Z,14.53
2022-08-05T22:39:19.715Z,14.53
2022-08-05T22:42:10.151Z,14.45
2022-08-05T22:44:34.721Z,14.48
2022-08-05T22:47:01.264Z,14.39
2022-08-05T22:50:17.855Z,14.32
2022-08-05T22:52:30.612Z,14.29
2022-08-05T22:55:01.198Z,14.16
2022-08-05T22:57:33.961Z,14.10
2022-08-05T23:00:03.690Z,14.06
2022-08-05T23:02:30.430Z,14.00
2022-08-05T23:05:01.946Z,13.96
2022-08-05T23:07:32.430Z,13.93
2022-08-05T23:10:10.404Z,13.91
2022-08-05T23:12:36.848Z,13.82
2022-08-05T23:15:08.991Z,13.83
2022-08-05T23:17:59.665Z,13.74
2022-08-05T23:20:24.399Z,13.64
2022-08-05T23:22:55.934Z,13.59
2022-08-05T23:25:50.922Z,13.54
2022-08-05T23:28:22.879Z,13.46
2022-08-05T23:30:53.195Z,13.38
2022-08-05T23:33:26.594Z,13.26
2022-08-05T23:36:10.456Z,13.33
2022-08-05T23:38:37.272Z,13.30
2022-08-05T23:41:03.758Z,13.25
2022-08-05T23:43:49.696Z,13.31
2022-08-05T23:46:21.292Z,13.21
2022-08-05T23:49:00.720Z,13.21
2022-08-05T23:51:53.663Z,13.25
2022-08-05T23:54:38.160Z,13.21
2022-08-05T23:57:06.570Z,13.19
